Time,TemperatureF,DewpointF,PressureIn,WindDirection,WindDirectionDegrees,WindSpeedMPH,WindSpeedGustMPH,Humidity,HourlyPrecipIn,Conditions,Clouds,dailyrainin,SoftwareType,DateUTC
2013-08-24 00:01:00,50.5,48.6,30.24,NNW,338,0.0,1.0,93,0.00,,,0.00,meteohub,2013-08-24 04:01:00,
2013-08-24 00:02:00,50.4,48.4,30.24,NNW,338,0.0,1.0,93,0.00,,,0.00,meteohub,2013-08-24 04:02:00,
2013-08-24 00:07:00,50.2,48.2,30.24,NNW,338,1.0,1.0,93,0.00,,,0.00,meteohub,2013-08-24 04:07:00,
2013-08-24 00:12:00,50.2,48.6,30.24,NNW,338,1.0,1.0,94,0.00,,,0.00,meteohub,2013-08-24 04:12:00,
2013-08-24 00:17:00,50.4,48.7,30.24,NNW,338,1.0,2.0,94,0.00,,,0.00,meteohub,2013-08-24 04:17:00,
2013-08-24 00:22:00,50.5,48.9,30.24,NNW,338,0.0,2.0,94,0.00,,,0.00,meteohub,2013-08-24 04:22:00,
2013-08-24 00:27:00,50.5,48.6,30.24,NNW,338,0.0,2.0,93,0.00,,,0.00,meteohub,2013-08-24 04:27:00,
2013-08-24 00:32:00,50.5,48.6,30.24,NNW,338,1.0,2.0,93,0.00,,,0.00,meteohub,2013-08-24 04:32:00,
2013-08-24 00:37:00,50.7,49.1,30.25,NNW,338,1.0,2.0,94,0.00,,,0.00,meteohub,2013-08-24 04:37:00,
2013-08-24 00:42:00,50.7,48.7,30.25,NNW,338,0.0,2.0,93,0.00,,,0.00,meteohub,2013-08-24 04:42:00,
2013-08-24 00:47:00,51.1,49.1,30.25,NNW,338,0.0,2.0,93,0.00,,,0.00,meteohub,2013-08-24 04:47:00,
2013-08-24 00:52:00,50.9,48.9,30.25,NNW,338,0.0,1.0,93,0.00,,,0.00,meteohub,2013-08-24 04:52:00,
2013-08-24 00:57:00,50.5,48.6,30.25,NNW,338,0.0,1.0,93,0.00,,,0.00,meteohub,2013-08-24 04:57:00,
2013-08-24 01:02:00,50.4,48.4,30.25,NNW,338,0.0,2.0,93,0.00,,,0.00,meteohub,2013-08-24 05:02:00,
2013-08-24 01:07:00,50.5,48.9,30.25,NNW,338,1.0,2.0,94,0.00,,,0.00,meteohub,2013-08-24 05:07:00,
2013-08-24 01:12:00,50.5,48.6,30.25,NNW,338,0.0,2.0,93,0.00,,,0.00,meteohub,2013-08-24 05:12:00,
2013-08-24 01:17:00,50.4,48.7,30.25,NNW,338,0.0,2.0,94,0.00,,,0.00,meteohub,2013-08-24 05:17:00,
2013-08-24 01:22:00,50.4,48.4,30.25,NNW,338,1.0,2.0,93,0.00,,,0.00,meteohub,2013-08-24 05:22:00,
2013-08-24 01:27:00,50.2,48.6,30.25,NNW,338,0.0,2.0,94,0.00,,,0.00,meteohub,2013-08-24 05:27:00,
2013-08-24 01:32:00,50.2,48.6,30.26,NNW,338,0.0,2.0,94,0.00,,,0.00,meteohub,2013-08-24 05:32:00,
2013-08-24 01:37:00,50.2,48.6,30.25,NNW,338,0.0,2.0,94,0.00,,,0.00,meteohub,2013-08-24 05:37:00,
2013-08-24 01:42:00,50.2,48.6,30.25,NNW,338,0.0,1.0,94,0.00,,,0.00,meteohub,2013-08-24 05:42:00,
2013-08-24 01:47:00,50.2,48.6,30.26,NNW,338,0.0,1.0,94,0.00,,,0.00,meteohub,2013-08-24 05:47:00,
2013-08-24 01:52:00,50.2,48.6,30.25,NNW,338,0.0,1.0,94,0.00,,,0.00,meteohub,2013-08-24 05:52:00,
2013-08-24 01:57:00,50.2,48.6,30.26,NNW,338,1.0,1.0,94,0.00,,,0.00,meteohub,2013-08-24 05:57:00,
2013-08-24 02:02:00,50.4,48.7,30.26,NNW,338,0.0,2.0,94,0.00,,,0.00,meteohub,2013-08-24 06:02:00,
2013-08-24 02:07:00,50.5,48.9,30.26,NNW,338,1.0,2.0,94,0.00,,,0.00,meteohub,2013-08-24 06:07:00,
2013-08-24 02:12:00,50.7,49.1,30.26,NNW,338,0.0,2.0,94,0.00,,,0.00,meteohub,2013-08-24 06:12:00,
2013-08-24 02:17:00,50.7,49.1,30.26,NNW,338,1.0,2.0,94,0.00,,,0.00,meteohub,2013-08-24 06:17:00,
2013-08-24 02:22:00,50.5,48.6,30.26,NNW,338,1.0,2.0,93,0.00,,,0.00,meteohub,2013-08-24 06:22:00,
2013-08-24 02:28:00,50.4,48.4,30.26,NNW,338,0.0,3.0,93,0.00,,,0.00,meteohub,2013-08-24 06:28:00,
2013-08-24 02:33:00,50.5,48.9,30.26,NNW,338,0.0,3.0,94,0.00,,,0.00,meteohub,2013-08-24 06:33:00,
2013-08-24 02:38:00,50.5,48.9,30.27,NNW,338,0.0,2.0,94,0.00,,,0.00,meteohub,2013-08-24 06:38:00,
2013-08-24 02:43:00,50.4,48.7,30.27,NNW,338,0.0,2.0,94,0.00,,,0.00,meteohub,2013-08-24 06:43:00,
2013-08-24 02:48:00,50.5,48.9,30.27,NNW,338,0.0,1.0,94,0.00,,,0.00,meteohub,2013-08-24 06:48:00,
2013-08-24 02:53:00,50.4,48.7,30.27,NNW,338,1.0,1.0,94,0.00,,,0.00,meteohub,2013-08-24 06:53:00,
2013-08-24 02:58:00,50.4,48.7,30.27,NNW,338,0.0,2.0,94,0.00,,,0.00,meteohub,2013-08-24 06:58:00,
2013-08-24 03:03:00,50.4,48.7,30.27,NNW,338,1.0,2.0,94,0.00,,,0.00,meteohub,2013-08-24 07:03:00,
2013-08-24 03:08:00,50.4,48.7,30.27,NNW,338,0.0,2.0,94,0.00,,,0.00,meteohub,2013-08-24 07:08:00,
2013-08-24 03:13:00,50.2,48.6,30.28,NNW,338,0.0,1.0,94,0.00,,,0.00,meteohub,2013-08-24 07:13:00,
2013-08-24 03:18:00,50.0,48.4,30.28,NNW,338,0.0,1.0,94,0.00,,,0.00,meteohub,2013-08-24 07:18:00,
2013-08-24 03:23:00,49.8,48.2,30.28,NNW,338,1.0,1.0,94,0.00,,,0.00,meteohub,2013-08-24 07:23:00,
2013-08-24 03:28:00,49.8,48.2,30.28,NNW,338,0.0,1.0,94,0.00,,,0.00,meteohub,2013-08-24 07:28:00,
2013-08-24 03:33:00,49.8,48.2,30.29,NNW,338,1.0,1.0,94,0.00,,,0.00,meteohub,2013-08-24 07:33:00,
2013-08-24 03:38:00,49.8,48.2,30.29,NNW,338,0.0,1.0,94,0.00,,,0.00,meteohub,2013-08-24 07:38:00,
2013-08-24 03:43:00,49.8,48.4,30.29,NNW,338,1.0,1.0,95,0.00,,,0.00,meteohub,2013-08-24 07:43:00,
2013-08-24 03:48:00,49.8,48.4,30.29,NNW,338,1.0,1.0,95,0.00,,,0.00,meteohub,2013-08-24 07:48:00,
2013-08-24 03:53:00,49.6,48.2,30.30,NNW,338,0.0,1.0,95,0.00,,,0.00,meteohub,2013-08-24 07:53:00,
2013-08-24 03:58:00,49.8,48.4,30.30,NNW,338,0.0,1.0,95,0.00,,,0.00,meteohub,2013-08-24 07:58:00,
2013-08-24 04:03:00,49.8,48.4,30.30,NNW,338,0.0,1.0,95,0.00,,,0.00,meteohub,2013-08-24 08:03:00,
2013-08-24 04:08:00,49.8,48.2,30.30,NNW,338,1.0,1.0,94,0.00,,,0.00,meteohub,2013-08-24 08:08:00,
2013-08-24 04:13:00,49.8,48.2,30.30,NNW,338,0.0,1.0,94,0.00,,,0.00,meteohub,2013-08-24 08:13:00,
2013-08-24 04:18:00,49.8,48.2,30.30,NNW,338,0.0,1.0,94,0.00,,,0.00,meteohub,2013-08-24 08:18:00,
2013-08-24 04:23:00,49.6,48.0,30.30,NNW,338,1.0,1.0,94,0.00,,,0.00,meteohub,2013-08-24 08:23:00,
2013-08-24 04:28:00,49.5,48.0,30.30,NNW,338,1.0,2.0,95,0.00,,,0.00,meteohub,2013-08-24 08:28:00,
2013-08-24 04:33:00,49.5,48.0,30.30,NNW,338,0.0,2.0,95,0.00,,,0.00,meteohub,2013-08-24 08:33:00,
2013-08-24 04:38:00,49.5,48.0,30.31,NNW,338,0.0,2.0,95,0.00,,,0.00,meteohub,2013-08-24 08:38:00,
2013-08-24 04:43:00,49.3,47.8,30.31,NNW,338,0.0,2.0,95,0.00,,,0.00,meteohub,2013-08-24 08:43:00,
2013-08-24 04:48:00,49.1,47.7,30.31,NNW,338,0.0,1.0,95,0.00,,,0.00,meteohub,2013-08-24 08:48:00,
2013-08-24 04:53:00,49.1,47.7,30.32,NNW,338,0.0,2.0,95,0.00,,,0.00,meteohub,2013-08-24 08:53:00,
2013-08-24 04:58:00,48.9,47.5,30.32,NNW,338,0.0,2.0,95,0.00,,,0.00,meteohub,2013-08-24 08:58:00,
2013-08-24 05:03:00,48.7,47.3,30.32,NNW,338,0.0,2.0,95,0.00,,,0.00,meteohub,2013-08-24 09:03:00,
2013-08-24 05:08:00,48.7,47.3,30.32,NNW,338,0.0,2.0,95,0.00,,,0.00,meteohub,2013-08-24 09:08:00,
2013-08-24 05:13:00,48.6,47.5,30.32,NNW,338,0.0,2.0,96,0.00,,,0.00,meteohub,2013-08-24 09:13:00,
2013-08-24 05:18:00,48.6,47.5,30.32,NNW,338,0.0,1.0,96,0.00,,,0.00,meteohub,2013-08-24 09:18:00,
2013-08-24 05:23:00,48.4,46.9,30.32,NNW,338,1.0,1.0,95,0.00,,,0.00,meteohub,2013-08-24 09:23:00,
2013-08-24 05:28:00,48.0,46.9,30.33,NNW,338,1.0,1.0,96,0.00,,,0.00,meteohub,2013-08-24 09:28:00,
2013-08-24 05:33:00,48.0,46.9,30.33,NNW,338,0.0,1.0,96,0.00,,,0.00,meteohub,2013-08-24 09:33:00,
2013-08-24 05:38:00,48.2,47.1,30.33,NNW,338,0.0,2.0,96,0.00,,,0.00,meteohub,2013-08-24 09:38:00,
2013-08-24 05:43:00,48.4,47.3,30.34,NNW,338,1.0,2.0,96,0.00,,,0.00,meteohub,2013-08-24 09:43:00,
2013-08-24 05:48:00,48.2,47.1,30.33,NNW,338,1.0,2.0,96,0.00,,,0.00,meteohub,2013-08-24 09:48:00,
2013-08-24 05:53:00,48.4,47.5,30.34,NNW,338,0.0,2.0,97,0.00,,,0.00,meteohub,2013-08-24 09:53:00,
2013-08-24 05:58:00,48.2,47.1,30.34,NNW,338,0.0,2.0,96,0.00,,,0.00,meteohub,2013-08-24 09:58:00,
2013-08-24 06:03:00,48.0,46.9,30.35,NNW,338,0.0,1.0,96,0.00,,,0.00,meteohub,2013-08-24 10:03:00,
2013-08-24 06:08:00,48.0,46.9,30.35,NNW,338,0.0,1.0,96,0.00,,,0.00,meteohub,2013-08-24 10:08:00,
2013-08-24 06:13:00,48.6,47.7,30.35,NNW,338,0.0,1.0,97,0.00,,,0.00,meteohub,2013-08-24 10:13:00,
2013-08-24 06:18:00,48.7,47.8,30.35,NNW,338,0.0,1.0,97,0.00,,,0.00,meteohub,2013-08-24 10:18:00,
2013-08-24 06:23:00,48.9,47.8,30.35,NNW,338,0.0,1.0,96,0.00,,,0.00,meteohub,2013-08-24 10:23:00,
2013-08-24 06:28:00,49.1,48.0,30.35,NNW,338,0.0,1.0,96,0.00,,,0.00,meteohub,2013-08-24 10:28:00,
2013-08-24 06:33:00,49.1,48.0,30.35,NNW,338,0.0,1.0,96,0.00,,,0.00,meteohub,2013-08-24 10:33:00,
2013-08-24 06:38:00,48.9,47.5,30.36,NNW,338,0.0,1.0,95,0.00,,,0.00,meteohub,2013-08-24 10:38:00,
2013-08-24 06:44:00,49.3,48.2,30.36,NNW,338,0.0,1.0,96,0.00,,,0.00,meteohub,2013-08-24 10:44:00,
2013-08-24 06:49:00,49.5,48.4,30.36,NNW,338,0.0,1.0,96,0.00,,,0.00,meteohub,2013-08-24 10:49:00,
2013-08-24 06:54:00,49.5,48.0,30.36,NNW,338,0.0,1.0,95,0.00,,,0.00,meteohub,2013-08-24 10:54:00,
2013-08-24 06:59:00,49.5,48.0,30.36,NNW,338,0.0,1.0,95,0.00,,,0.00,meteohub,2013-08-24 10:59:00,
2013-08-24 07:04:00,49.6,48.2,30.37,NNW,338,0.0,1.0,95,0.00,,,0.00,meteohub,2013-08-24 11:04:00,
2013-08-24 07:09:00,50.0,48.9,30.37,NNW,338,0.0,1.0,96,0.00,,,0.00,meteohub,2013-08-24 11:09:00,
2013-08-24 07:14:00,50.4,48.9,30.37,NNW,338,1.0,1.0,95,0.00,,,0.00,meteohub,2013-08-24 11:14:00,
2013-08-24 07:19:00,50.9,49.5,30.37,NNW,338,0.0,1.0,95,0.00,,,0.00,meteohub,2013-08-24 11:19:00,
2013-08-24 07:24:00,51.4,49.8,30.37,NNW,338,0.0,1.0,94,0.00,,,0.00,meteohub,2013-08-24 11:24:00,
2013-08-24 07:29:00,52.0,50.0,30.37,NNW,338,0.0,1.0,93,0.00,,,0.00,meteohub,2013-08-24 11:29:00,
2013-08-24 07:34:00,52.7,50.7,30.37,NNW,338,0.0,1.0,93,0.00,,,0.00,meteohub,2013-08-24 11:34:00,
2013-08-24 07:39:00,53.2,51.3,30.38,NNW,338,0.0,1.0,93,0.00,,,0.00,meteohub,2013-08-24 11:39:00,
2013-08-24 07:44:00,54.1,51.6,30.38,NNW,338,0.0,1.0,91,0.00,,,0.00,meteohub,2013-08-24 11:44:00,
2013-08-24 07:49:00,55.2,52.3,30.38,NNW,338,0.0,0.0,90,0.00,,,0.00,meteohub,2013-08-24 11:49:00,
2013-08-24 07:54:00,56.3,52.9,30.38,NNW,338,0.0,0.0,88,0.00,,,0.00,meteohub,2013-08-24 11:54:00,
2013-08-24 07:59:00,56.8,53.1,30.38,NNW,338,0.0,0.0,87,0.00,,,0.00,meteohub,2013-08-24 11:59:00,
2013-08-24 08:04:00,57.7,53.2,30.38,NNW,338,0.0,1.0,85,0.00,,,0.00,meteohub,2013-08-24 12:04:00,
2013-08-24 08:09:00,58.6,53.2,30.38,NNW,338,0.0,1.0,82,0.00,,,0.00,meteohub,2013-08-24 12:09:00,
2013-08-24 08:14:00,59.4,53.6,30.38,SW,221,0.0,0.0,81,0.00,,,0.00,meteohub,2013-08-24 12:14:00,
2013-08-24 08:19:00,59.7,53.2,30.38,SW,221,0.0,1.0,79,0.00,,,0.00,meteohub,2013-08-24 12:19:00,
2013-08-24 08:24:00,60.4,52.9,30.38,SW,221,0.0,1.0,76,0.00,,,0.00,meteohub,2013-08-24 12:24:00,
2013-08-24 08:29:00,60.8,52.9,30.39,SW,221,0.0,1.0,75,0.00,,,0.00,meteohub,2013-08-24 12:29:00,
2013-08-24 08:34:00,61.2,52.9,30.39,SW,221,0.0,1.0,74,0.00,,,0.00,meteohub,2013-08-24 12:34:00,
2013-08-24 08:39:00,61.3,52.2,30.39,SW,221,0.0,1.0,72,0.00,,,0.00,meteohub,2013-08-24 12:39:00,
2013-08-24 08:44:00,61.3,51.8,30.39,South,172,1.0,2.0,71,0.00,,,0.00,meteohub,2013-08-24 12:44:00,
2013-08-24 08:49:00,61.0,52.0,30.39,South,169,0.0,3.0,72,0.00,,,0.00,meteohub,2013-08-24 12:49:00,
2013-08-24 08:54:00,61.2,54.3,30.39,South,169,1.0,3.0,78,0.00,,,0.00,meteohub,2013-08-24 12:54:00,
2013-08-24 08:59:00,61.2,55.6,30.39,SW,217,4.0,4.0,82,0.00,,,0.00,meteohub,2013-08-24 12:59:00,
2013-08-24 09:04:00,60.4,54.3,30.39,SSW,211,1.0,3.0,80,0.00,,,0.00,meteohub,2013-08-24 13:04:00,
2013-08-24 09:09:00,60.1,54.3,30.39,South,177,0.0,6.0,81,0.00,,,0.00,meteohub,2013-08-24 13:09:00,
2013-08-24 09:14:00,60.1,53.6,30.39,SSW,196,0.0,6.0,79,0.00,,,0.00,meteohub,2013-08-24 13:14:00,
2013-08-24 09:19:00,60.4,52.5,30.39,SSW,196,0.0,4.0,75,0.00,,,0.00,meteohub,2013-08-24 13:19:00,
2013-08-24 09:24:00,61.0,53.1,30.39,SSW,196,0.0,3.0,75,0.00,,,0.00,meteohub,2013-08-24 13:24:00,
2013-08-24 09:29:00,61.2,52.5,30.39,SSW,196,0.0,3.0,73,0.00,,,0.00,meteohub,2013-08-24 13:29:00,
2013-08-24 09:34:00,61.5,53.2,30.39,SSW,196,1.0,3.0,74,0.00,,,0.00,meteohub,2013-08-24 13:34:00,
2013-08-24 09:39:00,61.5,52.3,30.39,SSW,192,0.0,3.0,72,0.00,,,0.00,meteohub,2013-08-24 13:39:00,
2013-08-24 09:44:00,61.9,52.3,30.39,SSW,192,2.0,6.0,71,0.00,,,0.00,meteohub,2013-08-24 13:44:00,
2013-08-24 09:49:00,62.1,52.5,30.39,SSW,192,0.0,6.0,71,0.00,,,0.00,meteohub,2013-08-24 13:49:00,
2013-08-24 09:54:00,62.2,51.6,30.39,SE,144,0.0,4.0,68,0.00,,,0.00,meteohub,2013-08-24 13:54:00,
2013-08-24 09:59:00,62.4,52.9,30.39,South,191,0.0,3.0,71,0.00,,,0.00,meteohub,2013-08-24 13:59:00,
2013-08-24 10:04:00,62.4,53.2,30.39,SSW,211,1.0,3.0,72,0.00,,,0.00,meteohub,2013-08-24 14:04:00,
2013-08-24 10:09:00,63.0,52.2,30.39,SSE,159,3.0,4.0,68,0.00,,,0.00,meteohub,2013-08-24 14:09:00,
2013-08-24 10:14:00,63.0,51.8,30.40,SSE,159,0.0,4.0,67,0.00,,,0.00,meteohub,2013-08-24 14:14:00,
2013-08-24 10:19:00,63.1,51.6,30.39,SSE,159,0.0,4.0,66,0.00,,,0.00,meteohub,2013-08-24 14:19:00,
2013-08-24 10:24:00,63.3,51.4,30.39,SSW,197,2.0,3.0,65,0.00,,,0.00,meteohub,2013-08-24 14:24:00,
2013-08-24 10:29:00,63.5,52.0,30.39,SW,215,1.0,3.0,66,0.00,,,0.00,meteohub,2013-08-24 14:29:00,
2013-08-24 10:34:00,63.9,52.7,30.40,SW,223,0.0,4.0,67,0.00,,,0.00,meteohub,2013-08-24 14:34:00,
2013-08-24 10:39:00,64.2,52.7,30.39,WSW,246,0.0,4.0,66,0.00,,,0.00,meteohub,2013-08-24 14:39:00,
2013-08-24 10:44:00,64.8,51.8,30.39,WNW,292,1.0,4.0,63,0.00,,,0.00,meteohub,2013-08-24 14:44:00,
2013-08-24 10:49:00,65.1,54.0,30.40,SW,234,0.0,4.0,67,0.00,,,0.00,meteohub,2013-08-24 14:49:00,
2013-08-24 10:54:00,65.5,53.1,30.40,SE,146,1.0,4.0,64,0.00,,,0.00,meteohub,2013-08-24 14:54:00,
2013-08-24 10:59:00,65.5,54.3,30.40,SSE,152,0.0,5.0,67,0.00,,,0.00,meteohub,2013-08-24 14:59:00,
2013-08-24 11:04:00,66.0,51.8,30.39,SSE,152,0.0,5.0,60,0.00,,,0.00,meteohub,2013-08-24 15:04:00,
2013-08-24 11:09:00,66.6,54.0,30.39,SE,146,0.0,5.0,64,0.00,,,0.00,meteohub,2013-08-24 15:09:00,
2013-08-24 11:14:00,66.6,54.5,30.39,SSW,192,0.0,3.0,65,0.00,,,0.00,meteohub,2013-08-24 15:14:00,
2013-08-24 11:19:00,66.6,53.6,30.40,WSW,250,1.0,3.0,63,0.00,,,0.00,meteohub,2013-08-24 15:19:00,
2013-08-24 11:24:00,66.4,53.4,30.40,WNW,289,0.0,3.0,63,0.00,,,0.00,meteohub,2013-08-24 15:24:00,
2013-08-24 11:29:00,66.4,52.5,30.40,West,268,1.0,4.0,61,0.00,,,0.00,meteohub,2013-08-24 15:29:00,
2013-08-24 11:34:00,66.2,54.1,30.40,West,259,3.0,5.0,65,0.00,,,0.00,meteohub,2013-08-24 15:34:00,
2013-08-24 11:39:00,66.0,51.8,30.40,WSW,254,3.0,5.0,60,0.00,,,0.00,meteohub,2013-08-24 15:39:00,
2013-08-24 11:44:00,66.7,54.7,30.40,WNW,289,1.0,5.0,65,0.00,,,0.00,meteohub,2013-08-24 15:44:00,
2013-08-24 11:49:00,67.1,52.7,30.40,East,101,0.0,5.0,60,0.00,,,0.00,meteohub,2013-08-24 15:49:00,
2013-08-24 11:54:00,67.6,54.7,30.40,West,260,0.0,5.0,63,0.00,,,0.00,meteohub,2013-08-24 15:54:00,
2013-08-24 11:59:00,68.2,54.1,30.40,NW,308,0.0,4.0,61,0.00,,,0.00,meteohub,2013-08-24 15:59:00,
2013-08-24 12:04:00,68.4,50.0,30.40,WNW,286,1.0,4.0,52,0.00,,,0.00,meteohub,2013-08-24 16:04:00,
2013-08-24 12:09:00,68.2,51.4,30.40,NW,304,1.0,4.0,55,0.00,,,0.00,meteohub,2013-08-24 16:09:00,
2013-08-24 12:14:00,68.5,52.2,30.40,NNE,28,1.0,5.0,56,0.00,,,0.00,meteohub,2013-08-24 16:14:00,
2013-08-24 12:19:00,68.9,50.5,30.39,West,277,3.0,5.0,52,0.00,,,0.00,meteohub,2013-08-24 16:19:00,
2013-08-24 12:25:00,68.7,49.8,30.39,West,277,2.0,5.0,51,0.00,,,0.00,meteohub,2013-08-24 16:25:00,
2013-08-24 12:30:00,68.7,52.0,30.39,NW,308,2.0,3.0,55,0.00,,,0.00,meteohub,2013-08-24 16:30:00,
2013-08-24 12:35:00,69.1,51.8,30.39,ESE,114,0.0,4.0,54,0.00,,,0.00,meteohub,2013-08-24 16:35:00,
2013-08-24 12:40:00,69.6,50.2,30.39,East,97,3.0,4.0,50,0.00,,,0.00,meteohub,2013-08-24 16:40:00,
2013-08-24 12:45:00,69.4,47.8,30.39,West,275,1.0,4.0,46,0.00,,,0.00,meteohub,2013-08-24 16:45:00,
2013-08-24 12:50:00,70.0,49.5,30.39,SSW,201,2.0,5.0,48,0.00,,,0.00,meteohub,2013-08-24 16:50:00,
2013-08-24 12:55:00,70.3,50.4,30.39,SE,130,0.0,5.0,49,0.00,,,0.00,meteohub,2013-08-24 16:55:00,
2013-08-24 13:00:00,70.5,51.4,30.39,WSW,242,0.0,4.0,51,0.00,,,0.00,meteohub,2013-08-24 17:00:00,
2013-08-24 13:05:00,70.9,51.3,30.39,ENE,73,1.0,4.0,50,0.00,,,0.00,meteohub,2013-08-24 17:05:00,
2013-08-24 13:10:00,70.9,52.3,30.39,WNW,294,1.0,4.0,52,0.00,,,0.00,meteohub,2013-08-24 17:10:00,
2013-08-24 13:15:00,71.1,54.5,30.39,West,267,0.0,5.0,56,0.00,,,0.00,meteohub,2013-08-24 17:15:00,
2013-08-24 13:20:00,71.8,54.7,30.39,West,267,0.0,5.0,55,0.00,,,0.00,meteohub,2013-08-24 17:20:00,
2013-08-24 13:25:00,72.0,56.3,30.39,WNW,290,0.0,3.0,58,0.00,,,0.00,meteohub,2013-08-24 17:25:00,
2013-08-24 13:30:00,72.1,53.6,30.39,ESE,109,0.0,3.0,52,0.00,,,0.00,meteohub,2013-08-24 17:30:00,
2013-08-24 13:35:00,72.0,52.9,30.39,West,279,0.0,3.0,51,0.00,,,0.00,meteohub,2013-08-24 17:35:00,
2013-08-24 13:40:00,71.4,53.4,30.39,SSE,159,0.0,3.0,53,0.00,,,0.00,meteohub,2013-08-24 17:40:00,
2013-08-24 13:45:00,72.0,54.3,30.39,South,171,0.0,4.0,54,0.00,,,0.00,meteohub,2013-08-24 17:45:00,
2013-08-24 13:50:00,72.1,53.6,30.39,South,186,0.0,4.0,52,0.00,,,0.00,meteohub,2013-08-24 17:50:00,
2013-08-24 13:55:00,72.3,55.2,30.38,SW,219,1.0,4.0,55,0.00,,,0.00,meteohub,2013-08-24 17:55:00,
2013-08-24 14:00:00,72.7,54.5,30.38,WSW,252,2.0,3.0,53,0.00,,,0.00,meteohub,2013-08-24 18:00:00,
2013-08-24 14:05:00,72.1,54.5,30.38,ESE,105,0.0,3.0,54,0.00,,,0.00,meteohub,2013-08-24 18:05:00,
2013-08-24 14:10:00,72.7,55.0,30.38,NW,319,0.0,4.0,54,0.00,,,0.00,meteohub,2013-08-24 18:10:00,
2013-08-24 14:15:00,72.7,52.3,30.38,WSW,244,1.0,4.0,49,0.00,,,0.00,meteohub,2013-08-24 18:15:00,
2013-08-24 14:20:00,72.7,51.8,30.38,WNW,284,0.0,4.0,48,0.00,,,0.00,meteohub,2013-08-24 18:20:00,
2013-08-24 14:25:00,73.0,55.4,30.38,WNW,297,1.0,4.0,54,0.00,,,0.00,meteohub,2013-08-24 18:25:00,
2013-08-24 14:30:00,73.2,52.9,30.38,NNE,32,1.0,4.0,49,0.00,,,0.00,meteohub,2013-08-24 18:30:00,
2013-08-24 14:35:00,72.9,52.0,30.38,West,272,3.0,4.0,48,0.00,,,0.00,meteohub,2013-08-24 18:35:00,
2013-08-24 14:40:00,72.1,52.0,30.38,WNW,296,2.0,6.0,49,0.00,,,0.00,meteohub,2013-08-24 18:40:00,
2013-08-24 14:45:00,72.3,50.9,30.37,SW,236,0.0,6.0,47,0.00,,,0.00,meteohub,2013-08-24 18:45:00,
2013-08-24 14:50:00,72.5,51.6,30.38,WSW,250,0.0,6.0,48,0.00,,,0.00,meteohub,2013-08-24 18:50:00,
2013-08-24 14:55:00,72.9,54.7,30.38,WSW,256,1.0,5.0,53,0.00,,,0.00,meteohub,2013-08-24 18:55:00,
2013-08-24 15:00:00,73.0,53.2,30.38,NW,308,1.0,5.0,50,0.00,,,0.00,meteohub,2013-08-24 19:00:00,
2013-08-24 15:05:00,73.0,51.1,30.38,West,274,1.0,4.0,46,0.00,,,0.00,meteohub,2013-08-24 19:05:00,
2013-08-24 15:10:00,73.6,52.2,30.38,North,350,3.0,4.0,47,0.00,,,0.00,meteohub,2013-08-24 19:10:00,
2013-08-24 15:15:00,73.6,51.4,30.38,ENE,78,1.0,4.0,46,0.00,,,0.00,meteohub,2013-08-24 19:15:00,
2013-08-24 15:20:00,73.4,53.6,30.38,SE,128,0.0,4.0,50,0.00,,,0.00,meteohub,2013-08-24 19:20:00,
2013-08-24 15:25:00,73.6,53.8,30.38,SE,138,0.0,4.0,50,0.00,,,0.00,meteohub,2013-08-24 19:25:00,
2013-08-24 15:30:00,73.6,53.8,30.38,NW,314,0.0,4.0,50,0.00,,,0.00,meteohub,2013-08-24 19:30:00,
2013-08-24 15:35:00,73.2,54.5,30.37,WNW,300,1.0,4.0,52,0.00,,,0.00,meteohub,2013-08-24 19:35:00,
2013-08-24 15:40:00,73.0,52.2,30.37,South,190,1.0,4.0,48,0.00,,,0.00,meteohub,2013-08-24 19:40:00,
2013-08-24 15:45:00,73.2,54.0,30.37,West,270,2.0,4.0,51,0.00,,,0.00,meteohub,2013-08-24 19:45:00,
2013-08-24 15:50:00,72.9,52.5,30.37,West,274,1.0,5.0,49,0.00,,,0.00,meteohub,2013-08-24 19:50:00,
2013-08-24 15:55:00,72.9,55.2,30.37,NW,321,0.0,5.0,54,0.00,,,0.00,meteohub,2013-08-24 19:55:00,
2013-08-24 16:01:00,73.2,52.3,30.38,NNW,336,0.0,5.0,48,0.00,,,0.00,meteohub,2013-08-24 20:01:00,
2013-08-24 16:06:00,73.4,49.5,30.37,NW,322,0.0,4.0,43,0.00,,,0.00,meteohub,2013-08-24 20:06:00,
2013-08-24 16:11:00,73.6,50.9,30.37,ESE,119,0.0,3.0,45,0.00,,,0.00,meteohub,2013-08-24 20:11:00,
2013-08-24 16:16:00,73.6,54.9,30.37,ESE,105,0.0,3.0,52,0.00,,,0.00,meteohub,2013-08-24 20:16:00,
2013-08-24 16:21:00,73.0,53.8,30.37,WSW,246,0.0,3.0,51,0.00,,,0.00,meteohub,2013-08-24 20:21:00,
2013-08-24 16:26:00,73.2,55.0,30.37,SW,234,0.0,5.0,53,0.00,,,0.00,meteohub,2013-08-24 20:26:00,
2013-08-24 16:31:00,73.0,54.3,30.37,WSW,252,0.0,5.0,52,0.00,,,0.00,meteohub,2013-08-24 20:31:00,
2013-08-24 16:36:00,73.0,54.3,30.37,WNW,286,1.0,3.0,52,0.00,,,0.00,meteohub,2013-08-24 20:36:00,
2013-08-24 16:41:00,73.0,54.3,30.37,West,281,0.0,3.0,52,0.00,,,0.00,meteohub,2013-08-24 20:41:00,
2013-08-24 16:46:00,72.9,54.1,30.37,WNW,283,1.0,4.0,52,0.00,,,0.00,meteohub,2013-08-24 20:46:00,
2013-08-24 16:51:00,72.9,54.1,30.37,WNW,282,0.0,5.0,52,0.00,,,0.00,meteohub,2013-08-24 20:51:00,
2013-08-24 16:56:00,73.0,55.4,30.37,WNW,282,0.0,5.0,54,0.00,,,0.00,meteohub,2013-08-24 20:56:00,
2013-08-24 17:01:00,73.4,55.2,30.37,WNW,282,1.0,3.0,53,0.00,,,0.00,meteohub,2013-08-24 21:01:00,
2013-08-24 17:06:00,73.4,55.2,30.37,WNW,282,0.0,2.0,53,0.00,,,0.00,meteohub,2013-08-24 21:06:00,
2013-08-24 17:11:00,73.2,55.6,30.37,WNW,282,1.0,2.0,54,0.00,,,0.00,meteohub,2013-08-24 21:11:00,
2013-08-24 17:16:00,73.4,56.3,30.37,WNW,282,0.0,2.0,55,0.00,,,0.00,meteohub,2013-08-24 21:16:00,
2013-08-24 17:21:00,73.4,55.2,30.36,West,281,0.0,2.0,53,0.00,,,0.00,meteohub,2013-08-24 21:21:00,
2013-08-24 17:26:00,73.4,53.1,30.36,West,281,2.0,3.0,49,0.00,,,0.00,meteohub,2013-08-24 21:26:00,
2013-08-24 17:31:00,72.9,54.1,30.36,West,278,3.0,3.0,52,0.00,,,0.00,meteohub,2013-08-24 21:31:00,
2013-08-24 17:36:00,72.5,55.4,30.36,West,278,0.0,6.0,55,0.00,,,0.00,meteohub,2013-08-24 21:36:00,
2013-08-24 17:41:00,72.3,56.7,30.36,WNW,282,0.0,6.0,58,0.00,,,0.00,meteohub,2013-08-24 21:41:00,
2013-08-24 17:46:00,71.8,54.7,30.36,WNW,282,0.0,6.0,55,0.00,,,0.00,meteohub,2013-08-24 21:46:00,
2013-08-24 17:51:00,71.6,57.0,30.36,WNW,282,1.0,3.0,60,0.00,,,0.00,meteohub,2013-08-24 21:51:00,
2013-08-24 17:56:00,71.4,55.9,30.36,WNW,282,0.0,2.0,58,0.00,,,0.00,meteohub,2013-08-24 21:56:00,
2013-08-24 18:01:00,71.1,57.4,30.36,WNW,282,2.0,2.0,62,0.00,,,0.00,meteohub,2013-08-24 22:01:00,
2013-08-24 18:06:00,70.9,56.3,30.36,WNW,282,0.0,2.0,60,0.00,,,0.00,meteohub,2013-08-24 22:06:00,
2013-08-24 18:11:00,70.2,57.4,30.36,WNW,282,1.0,2.0,64,0.00,,,0.00,meteohub,2013-08-24 22:11:00,
2013-08-24 18:16:00,69.1,56.5,30.36,WNW,282,0.0,2.0,64,0.00,,,0.00,meteohub,2013-08-24 22:16:00,
2013-08-24 18:21:00,67.8,56.8,30.36,WNW,282,0.0,1.0,68,0.00,,,0.00,meteohub,2013-08-24 22:21:00,
2013-08-24 18:26:00,66.9,56.5,30.37,WNW,282,0.0,1.0,69,0.00,,,0.00,meteohub,2013-08-24 22:26:00,
2013-08-24 18:31:00,66.2,56.1,30.37,WNW,282,0.0,1.0,70,0.00,,,0.00,meteohub,2013-08-24 22:31:00,
2013-08-24 18:37:00,65.7,56.3,30.37,WNW,282,0.0,1.0,72,0.00,,,0.00,meteohub,2013-08-24 22:37:00,
2013-08-24 18:42:00,65.1,56.3,30.37,WNW,282,0.0,1.0,73,0.00,,,0.00,meteohub,2013-08-24 22:42:00,
2013-08-24 18:46:00,64.8,56.3,30.37,WNW,282,0.0,1.0,74,0.00,,,0.00,meteohub,2013-08-24 22:46:00,
2013-08-24 18:52:00,64.2,55.4,30.37,WNW,282,0.0,1.0,73,0.00,,,0.00,meteohub,2013-08-24 22:52:00,
2013-08-24 18:57:00,63.7,55.6,30.38,WNW,282,0.0,0.0,75,0.00,,,0.00,meteohub,2013-08-24 22:57:00,
2013-08-24 19:02:00,63.3,55.9,30.38,WNW,282,0.0,0.0,77,0.00,,,0.00,meteohub,2013-08-24 23:02:00,
2013-08-24 19:07:00,63.0,55.6,30.38,WNW,282,0.0,1.0,77,0.00,,,0.00,meteohub,2013-08-24 23:07:00,
2013-08-24 19:12:00,62.4,55.8,30.38,WNW,282,0.0,1.0,79,0.00,,,0.00,meteohub,2013-08-24 23:12:00,
2013-08-24 19:17:00,61.5,55.2,30.38,WNW,282,0.0,1.0,80,0.00,,,0.00,meteohub,2013-08-24 23:17:00,
2013-08-24 19:22:00,60.8,54.9,30.38,WNW,282,0.0,1.0,81,0.00,,,0.00,meteohub,2013-08-24 23:22:00,
2013-08-24 19:27:00,60.1,54.3,30.38,WNW,282,0.0,1.0,81,0.00,,,0.00,meteohub,2013-08-24 23:27:00,
2013-08-24 19:32:00,59.7,53.6,30.38,WNW,282,0.0,1.0,80,0.00,,,0.00,meteohub,2013-08-24 23:32:00,
2013-08-24 19:37:00,59.7,52.9,30.38,WNW,282,0.0,1.0,78,0.00,,,0.00,meteohub,2013-08-24 23:37:00,
2013-08-24 19:42:00,59.7,53.2,30.38,WNW,282,0.0,1.0,79,0.00,,,0.00,meteohub,2013-08-24 23:42:00,
2013-08-24 19:47:00,59.2,53.4,30.38,WNW,282,0.0,1.0,81,0.00,,,0.00,meteohub,2013-08-24 23:47:00,
2013-08-24 19:52:00,58.5,52.0,30.38,WNW,282,1.0,1.0,79,0.00,,,0.00,meteohub,2013-08-24 23:52:00,
2013-08-24 19:57:00,58.5,52.3,30.38,WNW,282,0.0,1.0,80,0.00,,,0.00,meteohub,2013-08-24 23:57:00,
2013-08-24 20:02:00,57.9,52.2,30.38,WNW,282,1.0,1.0,81,0.00,,,0.00,meteohub,2013-08-25 00:02:00,
2013-08-24 20:07:00,57.9,51.4,30.38,WNW,282,0.0,1.0,79,0.00,,,0.00,meteohub,2013-08-25 00:07:00,
2013-08-24 20:12:00,58.5,52.0,30.38,WNW,282,0.0,2.0,79,0.00,,,0.00,meteohub,2013-08-25 00:12:00,
2013-08-24 20:17:00,58.5,51.3,30.38,WNW,282,2.0,2.0,77,0.00,,,0.00,meteohub,2013-08-25 00:17:00,
2013-08-24 20:22:00,58.3,50.7,30.39,WNW,282,1.0,2.0,76,0.00,,,0.00,meteohub,2013-08-25 00:22:00,
2013-08-24 20:27:00,58.3,51.1,30.39,WNW,282,0.0,2.0,77,0.00,,,0.00,meteohub,2013-08-25 00:27:00,
2013-08-24 20:32:00,58.3,51.8,30.40,WNW,282,1.0,2.0,79,0.00,,,0.00,meteohub,2013-08-25 00:32:00,
2013-08-24 20:37:00,57.6,51.1,30.40,WNW,282,0.0,2.0,79,0.00,,,0.00,meteohub,2013-08-25 00:37:00,
2013-08-24 20:42:00,57.0,50.5,30.40,WNW,282,1.0,2.0,79,0.00,,,0.00,meteohub,2013-08-25 00:42:00,
2013-08-24 20:47:00,56.8,50.7,30.40,WNW,282,1.0,2.0,80,0.00,,,0.00,meteohub,2013-08-25 00:47:00,
2013-08-24 20:52:00,56.8,51.1,30.40,WNW,282,1.0,2.0,81,0.00,,,0.00,meteohub,2013-08-25 00:52:00,
2013-08-24 20:57:00,56.8,50.4,30.40,WNW,282,0.0,2.0,79,0.00,,,0.00,meteohub,2013-08-25 00:57:00,
2013-08-24 21:02:00,57.0,50.5,30.40,WNW,282,1.0,2.0,79,0.00,,,0.00,meteohub,2013-08-25 01:02:00,
2013-08-24 21:07:00,57.2,50.0,30.40,WNW,282,0.0,2.0,77,0.00,,,0.00,meteohub,2013-08-25 01:07:00,
2013-08-24 21:12:00,57.6,50.0,30.40,WNW,282,1.0,2.0,76,0.00,,,0.00,meteohub,2013-08-25 01:12:00,
2013-08-24 21:17:00,57.7,50.5,30.40,WNW,282,0.0,2.0,77,0.00,,,0.00,meteohub,2013-08-25 01:17:00,
2013-08-24 21:22:00,57.4,51.3,30.41,WNW,282,0.0,1.0,80,0.00,,,0.00,meteohub,2013-08-25 01:22:00,
2013-08-24 21:27:00,56.8,51.1,30.41,WNW,282,0.0,1.0,81,0.00,,,0.00,meteohub,2013-08-25 01:27:00,
2013-08-24 21:32:00,56.7,50.2,30.41,WNW,282,0.0,1.0,79,0.00,,,0.00,meteohub,2013-08-25 01:32:00,
2013-08-24 21:37:00,56.8,49.3,30.41,WNW,282,0.0,1.0,76,0.00,,,0.00,meteohub,2013-08-25 01:37:00,
2013-08-24 21:42:00,56.7,50.2,30.41,WNW,282,0.0,1.0,79,0.00,,,0.00,meteohub,2013-08-25 01:42:00,
2013-08-24 21:47:00,56.7,48.7,30.41,WNW,282,0.0,1.0,75,0.00,,,0.00,meteohub,2013-08-25 01:47:00,
2013-08-24 21:52:00,56.8,48.6,30.41,WNW,282,1.0,1.0,74,0.00,,,0.00,meteohub,2013-08-25 01:52:00,
2013-08-24 21:57:00,57.0,49.8,30.41,WNW,282,0.0,1.0,77,0.00,,,0.00,meteohub,2013-08-25 01:57:00,
2013-08-24 22:02:00,56.1,48.9,30.41,WNW,282,0.0,2.0,77,0.00,,,0.00,meteohub,2013-08-25 02:02:00,
2013-08-24 22:07:00,56.1,49.6,30.41,WNW,282,0.0,2.0,79,0.00,,,0.00,meteohub,2013-08-25 02:07:00,
2013-08-24 22:12:00,56.1,50.0,30.41,WNW,282,1.0,2.0,80,0.00,,,0.00,meteohub,2013-08-25 02:12:00,
2013-08-24 22:17:00,55.8,48.9,30.41,WNW,282,0.0,2.0,78,0.00,,,0.00,meteohub,2013-08-25 02:17:00,
2013-08-24 22:22:00,55.8,49.6,30.41,WNW,282,1.0,2.0,80,0.00,,,0.00,meteohub,2013-08-25 02:22:00,
2013-08-24 22:27:00,55.8,49.6,30.41,WNW,282,0.0,2.0,80,0.00,,,0.00,meteohub,2013-08-25 02:27:00,
2013-08-24 22:32:00,55.6,49.5,30.42,WNW,282,1.0,2.0,80,0.00,,,0.00,meteohub,2013-08-25 02:32:00,
2013-08-24 22:37:00,55.4,49.3,30.41,WNW,282,0.0,2.0,80,0.00,,,0.00,meteohub,2013-08-25 02:37:00,
2013-08-24 22:42:00,55.4,49.6,30.41,WNW,282,1.0,2.0,81,0.00,,,0.00,meteohub,2013-08-25 02:42:00,
2013-08-24 22:47:00,55.6,49.1,30.41,WNW,282,0.0,2.0,79,0.00,,,0.00,meteohub,2013-08-25 02:47:00,
2013-08-24 22:52:00,55.4,48.9,30.41,WNW,282,0.0,2.0,79,0.00,,,0.00,meteohub,2013-08-25 02:52:00,
2013-08-24 22:57:00,55.2,48.7,30.41,WNW,282,0.0,2.0,79,0.00,,,0.00,meteohub,2013-08-25 02:57:00,
2013-08-24 23:02:00,55.0,49.3,30.41,WNW,282,0.0,1.0,81,0.00,,,0.00,meteohub,2013-08-25 03:02:00,
2013-08-24 23:07:00,54.9,48.7,30.41,WNW,282,0.0,1.0,80,0.00,,,0.00,meteohub,2013-08-25 03:07:00,
2013-08-24 23:12:00,55.2,48.7,30.41,WNW,282,0.0,1.0,79,0.00,,,0.00,meteohub,2013-08-25 03:12:00,
2013-08-24 23:17:00,55.4,48.9,30.41,WNW,282,0.0,1.0,79,0.00,,,0.00,meteohub,2013-08-25 03:17:00,
2013-08-24 23:22:00,55.8,49.3,30.41,WNW,282,0.0,1.0,79,0.00,,,0.00,meteohub,2013-08-25 03:22:00,
2013-08-24 23:27:00,55.8,48.9,30.41,WNW,282,1.0,2.0,78,0.00,,,0.00,meteohub,2013-08-25 03:27:00,
2013-08-24 23:32:00,55.8,48.9,30.41,WNW,282,0.0,2.0,78,0.00,,,0.00,meteohub,2013-08-25 03:32:00,
2013-08-24 23:37:00,55.4,48.9,30.41,WNW,282,0.0,2.0,79,0.00,,,0.00,meteohub,2013-08-25 03:37:00,
2013-08-24 23:42:00,55.2,49.1,30.41,WNW,282,0.0,1.0,80,0.00,,,0.00,meteohub,2013-08-25 03:42:00,
2013-08-24 23:48:00,54.9,48.7,30.41,WNW,282,0.0,1.0,80,0.00,,,0.00,meteohub,2013-08-25 03:48:00,
2013-08-24 23:53:00,54.9,48.7,30.41,WNW,282,0.0,2.0,80,0.00,,,0.00,meteohub,2013-08-25 03:53:00,
2013-08-24 23:58:00,55.0,48.9,30.40,WNW,282,0.0,2.0,80,0.00,,,0.00,meteohub,2013-08-25 03:58:00,